createdAt,value
2019-01-03T00:00:41.916Z,99767.02
2019-01-03T00:03:32.735Z,99761.62
2019-01-03T00:06:08.021Z,99766.24
2019-01-03T00:08:40.593Z,99773.52
2019-01-03T00:11:22.307Z,99773.88
2019-01-03T00:14:11.331Z,99769.12
2019-01-03T00:16:44.131Z,99774.70
2019-01-03T00:19:16.707Z,99780.06
2019-01-03T00:21:58.428Z,99773.34
2019-01-03T00:24:31.012Z,99788.20
2019-01-03T00:27:15.987Z,99784.77
2019-01-03T00:29:48.551Z,99795.73
2019-01-03T00:32:29.839Z,99788.91
2019-01-03T00:35:18.517Z,99796.59
2019-01-03T00:38:06.080Z,99797.72
2019-01-03T00:40:50.522Z,99807.45
2019-01-03T00:43:28.869Z,99813.89
2019-01-03T00:46:01.452Z,99814.64
2019-01-03T00:48:36.745Z,99811.67
2019-01-03T00:51:12.303Z,99819.30
2019-01-03T00:53:44.838Z,99817.52
2019-01-03T00:56:17.490Z,99823.45
2019-01-03T00:58:52.783Z,99829.62
2019-01-03T01:01:25.302Z,99828.16
2019-01-03T01:04:14.119Z,99832.28
2019-01-03T01:06:46.721Z,99839.85
2019-01-03T01:09:34.400Z,99839.62
2019-01-03T01:12:23.276Z,99848.92
2019-01-03T01:14:58.561Z,99848.05
2019-01-03T01:17:33.819Z,99851.26
2019-01-03T01:20:08.666Z,99864.34
2019-01-03T01:22:59.308Z,99862.77
2019-01-03T01:25:43.396Z,99852.88
2019-01-03T01:28:33.918Z,99867.36
2019-01-03T01:31:15.590Z,99868.92
2019-01-03T01:33:50.726Z,99868.77
2019-01-03T01:36:41.987Z,99871.48
2019-01-03T01:39:17.772Z,99878.10
2019-01-03T01:41:56.654Z,99870.31
2019-01-03T01:44:29.238Z,99876.52
2019-01-03T01:47:20.512Z,99880.06
2019-01-03T01:49:58.701Z,99877.45
2019-01-03T01:52:47.738Z,99877.66
2019-01-03T01:55:35.649Z,99882.61
2019-01-03T01:58:20.066Z,99873.17
2019-01-03T02:00:58.449Z,99879.04
2019-01-03T02:03:47.562Z,99884.09
2019-01-03T02:06:29.426Z,99888.20
2019-01-03T02:09:17.891Z,99889.81
2019-01-03T02:11:59.672Z,99898.10
2019-01-03T02:14:38.168Z,99897.44
2019-01-03T02:17:19.584Z,99893.55
2019-01-03T02:19:57.958Z,99890.41
2019-01-03T02:22:33.259Z,99890.95
2019-01-03T02:25:14.730Z,99897.15
2019-01-03T02:27:49.904Z,99888.49
2019-01-03T02:30:22.634Z,99894.19
2019-01-03T02:32:55.415Z,99895.29
2019-01-03T02:35:44.648Z,99897.44
2019-01-03T02:38:19.903Z,99902.47
2019-01-03T02:41:01.474Z,99903.92
2019-01-03T02:43:37.346Z,99904.85
2019-01-03T02:46:15.664Z,99903.34
2019-01-03T02:48:57.065Z,99903.20
2019-01-03T02:51:33.807Z,99907.58
2019-01-03T02:54:23.118Z,99900.37
2019-01-03T02:56:55.671Z,99900.20
2019-01-03T02:59:44.944Z,99892.52
2019-01-03T03:02:20.440Z,99892.88
2019-01-03T03:04:59.256Z,99889.59
2019-01-03T03:07:46.989Z,99893.34
2019-01-03T03:10:28.229Z,99890.85
2019-01-03T03:13:00.793Z,99891.81
2019-01-03T03:15:45.786Z,99888.17
2019-01-03T03:18:24.432Z,99891.34
2019-01-03T03:21:13.550Z,99883.36
2019-01-03T03:24:02.415Z,99881.88
2019-01-03T03:26:38.065Z,99876.61
2019-01-03T03:29:13.424Z,99874.95
2019-01-03T03:32:04.315Z,99876.44
2019-01-03T03:34:53.373Z,99876.70
2019-01-03T03:37:38.241Z,99879.53
2019-01-03T03:40:13.687Z,99880.66
2019-01-03T03:43:02.227Z,99888.67
2019-01-03T03:45:34.761Z,99884.01
2019-01-03T03:48:10.425Z,99884.95
2019-01-03T03:50:43.037Z,99873.45
2019-01-03T03:53:24.425Z,99874.14
2019-01-03T03:56:02.757Z,99868.62
2019-01-03T03:58:38.032Z,99872.52
2019-01-03T04:01:27.224Z,99868.81
2019-01-03T04:04:11.608Z,99866.52
2019-01-03T04:06:56.237Z,99871.83
2019-01-03T04:09:28.965Z,99863.70
2019-01-03T04:12:18.073Z,99857.45
2019-01-03T04:14:50.678Z,99861.09
2019-01-03T04:17:29.198Z,99863.64
2019-01-03T04:20:07.914Z,99865.35
2019-01-03T04:22:56.994Z,99866.50
2019-01-03T04:25:29.494Z,99864.75
2019-01-03T04:28:05.176Z,99867.91
2019-01-03T04:30:37.816Z,99866.88
2019-01-03T04:33:26.746Z,99859.77
2019-01-03T04:36:11.054Z,99868.00
2019-01-03T04:38:43.587Z,99872.77
2019-01-03T04:41:32.854Z,99870.62
2019-01-03T04:44:21.607Z,99871.02
2019-01-03T04:46:59.635Z,99869.94
2019-01-03T04:49:32.176Z,99867.48
2019-01-03T04:52:04.698Z,99871.89
2019-01-03T04:54:46.349Z,99877.23
2019-01-03T04:57:18.854Z,99866.97
2019-01-03T04:59:57.138Z,99881.97
2019-01-03T05:02:29.731Z,99890.59
2019-01-03T05:05:02.320Z,99889.70
2019-01-03T05:07:51.628Z,99895.47
2019-01-03T05:10:36.409Z,99899.59
2019-01-03T05:13:11.711Z,99899.83
2019-01-03T05:15:47.306Z,99905.41
2019-01-03T05:18:22.415Z,99902.55
2019-01-03T05:21:06.716Z,99904.33
2019-01-03T05:23:57.459Z,99907.48
2019-01-03T05:26:31.404Z,99908.05
2019-01-03T05:29:16.042Z,99906.08
2019-01-03T05:32:04.704Z,99910.70
2019-01-03T05:34:40.464Z,99913.26
2019-01-03T05:37:28.402Z,99915.57
2019-01-03T05:40:17.409Z,99910.64
2019-01-03T05:42:59.158Z,99912.38
2019-01-03T05:45:38.012Z,99921.23
2019-01-03T05:48:16.529Z,99917.98
2019-01-03T05:51:01.342Z,99923.50
2019-01-03T05:53:33.857Z,99925.31
2019-01-03T05:56:24.545Z,99926.98
2019-01-03T05:59:02.929Z,99929.45
2019-01-03T06:01:51.708Z,99932.55
2019-01-03T06:04:28.464Z,99939.23
2019-01-03T06:07:17.288Z,99942.02
2019-01-03T06:09:55.967Z,99944.47
2019-01-03T06:12:37.420Z,99947.83
2019-01-03T06:15:26.641Z,99942.34
2019-01-03T06:18:05.010Z,99935.64
2019-01-03T06:20:43.278Z,99938.26
2019-01-03T06:23:25.154Z,99937.78
2019-01-03T06:25:57.721Z,99935.09
2019-01-03T06:28:30.306Z,99936.27
2019-01-03T06:31:19.167Z,99931.58
2019-01-03T06:34:09.861Z,99928.39
2019-01-03T06:36:51.013Z,99928.25
2019-01-03T06:39:32.543Z,99926.34
2019-01-03T06:42:21.536Z,99933.14
2019-01-03T06:45:10.767Z,99938.05
2019-01-03T06:47:58.422Z,99937.25
2019-01-03T06:50:47.373Z,99942.11
2019-01-03T06:53:31.854Z,99931.27
2019-01-03T06:56:20.742Z,99944.81
2019-01-03T06:58:56.334Z,99946.42
2019-01-03T07:01:49.119Z,99954.96
2019-01-03T07:04:36.660Z,99945.50
2019-01-03T07:07:09.278Z,99943.83
2019-01-03T07:09:41.859Z,99954.81
2019-01-03T07:12:23.636Z,99957.97
2019-01-03T07:14:56.244Z,99954.87
2019-01-03T07:17:41.007Z,99970.03
2019-01-03T07:20:29.688Z,99968.41
2019-01-03T07:23:04.955Z,99969.39
2019-01-03T07:25:53.701Z,99985.70
2019-01-03T07:28:38.467Z,99980.69
2019-01-03T07:34:12.078Z,99987.72
2019-01-03T07:36:54.171Z,99985.45
2019-01-03T07:39:32.923Z,99986.91
2019-01-03T07:42:14.437Z,99986.19
2019-01-03T07:45:03.471Z,99981.89
2019-01-03T07:47:36.076Z,99987.13
2019-01-03T07:50:08.735Z,99984.83
2019-01-03T07:52:41.290Z,99989.20
2019-01-03T07:55:14.011Z,99989.05
2019-01-03T07:57:52.165Z,99982.67
2019-01-03T08:00:30.445Z,99998.40
2019-01-03T08:03:05.646Z,99987.94
2019-01-03T08:05:38.169Z,99999.16
2019-01-03T08:08:24.894Z,100006.99
2019-01-03T08:11:13.181Z,100003.87
2019-01-03T08:13:45.753Z,99996.88
2019-01-03T08:16:18.565Z,100004.44
2019-01-03T08:19:05.909Z,100004.69
2019-01-03T08:21:55.158Z,100004.91
2019-01-03T08:24:27.686Z,100008.91
2019-01-03T08:27:15.657Z,100014.08
2019-01-03T08:29:48.206Z,100007.52
2019-01-03T08:32:23.889Z,100005.70
2019-01-03T08:35:12.645Z,100003.16
2019-01-03T08:37:47.999Z,100005.48
2019-01-03T08:40:20.713Z,100000.98
2019-01-03T08:42:53.331Z,99995.80
2019-01-03T08:45:25.908Z,100000.88
2019-01-03T08:47:58.574Z,100002.05
2019-01-03T08:50:49.443Z,100001.95
2019-01-03T08:53:31.294Z,100006.42
2019-01-03T08:56:22.105Z,100012.97
2019-01-03T08:59:03.537Z,100011.19
2019-01-03T09:01:52.407Z,100011.29
2019-01-03T09:04:28.033Z,100005.45
2019-01-03T09:07:12.626Z,100012.59
2019-01-03T09:09:45.212Z,100017.36
2019-01-03T09:12:34.001Z,100017.60
2019-01-03T09:15:25.339Z,100026.67
2019-01-03T09:18:09.482Z,100030.84
2019-01-03T09:20:43.795Z,100027.31
2019-01-03T09:23:20.464Z,100026.07
2019-01-03T09:26:02.778Z,100027.95
2019-01-03T09:28:45.188Z,100028.08
2019-01-03T09:31:23.578Z,100028.12
2019-01-03T09:34:12.280Z,100031.23
2019-01-03T09:36:47.403Z,100027.75
2019-01-03T09:39:38.098Z,100026.73
2019-01-03T09:42:22.921Z,100019.95
2019-01-03T09:44:53.825Z,100008.82
2019-01-03T09:47:24.848Z,100009.02
2019-01-03T09:49:55.846Z,100001.33
2019-01-03T09:52:27.815Z,99988.70
2019-01-03T09:54:58.839Z,99985.66
2019-01-03T09:57:29.923Z,99990.33
2019-01-03T10:00:00.934Z,99979.52
2019-01-03T10:02:31.957Z,99973.54
2019-01-03T10:05:02.881Z,99954.33
2019-01-03T10:07:34.014Z,99956.41
2019-01-03T10:10:07.075Z,99952.36
2019-01-03T10:12:38.045Z,99954.25
2019-01-03T10:15:09.044Z,99955.59
2019-01-03T10:17:39.926Z,99949.98
2019-01-03T10:20:10.978Z,99952.08
2019-01-03T10:22:41.995Z,99957.39
2019-01-03T10:25:13.290Z,99955.08
2019-01-03T10:27:44.287Z,99946.52
2019-01-03T10:30:15.226Z,99948.22
2019-01-03T10:32:46.237Z,99939.50
2019-01-03T10:35:17.101Z,99944.67
2019-01-03T10:37:48.050Z,99941.77
2019-01-03T10:40:19.018Z,99935.28
2019-01-03T10:42:50.041Z,99936.50
2019-01-03T10:45:21.051Z,99929.25
2019-01-03T10:47:52.149Z,99930.06
2019-01-03T10:50:23.077Z,99927.74
2019-01-03T10:52:54.184Z,99928.66
2019-01-03T10:55:25.222Z,99926.89
2019-01-03T10:57:56.079Z,99932.39
2019-01-03T11:00:27.027Z,99925.81
2019-01-03T11:02:58.136Z,99913.64
2019-01-03T11:05:29.174Z,99914.19
2019-01-03T11:08:00.036Z,99910.56
2019-01-03T11:10:31.000Z,99905.23
2019-01-03T11:13:01.976Z,99905.19
2019-01-03T11:15:32.907Z,99900.63
2019-01-03T11:18:03.873Z,99900.02
2019-01-03T11:20:34.838Z,99895.17
2019-01-03T11:23:05.788Z,99891.77
2019-01-03T11:25:36.715Z,99890.73
2019-01-03T11:28:07.571Z,99877.09
2019-01-03T11:30:38.645Z,99875.75
2019-01-03T11:33:12.512Z,99872.37
2019-01-03T11:35:43.481Z,99870.28
2019-01-03T11:38:14.417Z,99861.16
2019-01-03T11:40:45.387Z,99861.60
2019-01-03T11:43:16.388Z,99861.49
2019-01-03T11:45:47.395Z,99855.49
2019-01-03T11:48:18.503Z,99849.98
2019-01-03T11:50:49.684Z,99841.52
2019-01-03T11:53:20.601Z,99837.20
2019-01-03T11:55:51.715Z,99829.35
2019-01-03T11:58:22.768Z,99826.58
2019-01-03T12:00:54.015Z,99831.58
2019-01-03T12:03:24.891Z,99821.64
2019-01-03T12:05:55.805Z,99813.91
2019-01-03T12:08:26.682Z,99823.39
2019-01-03T12:10:57.723Z,99814.73
2019-01-03T12:13:29.832Z,99812.61
2019-01-03T12:16:00.739Z,99817.63
2019-01-03T12:18:34.892Z,99805.42
2019-01-03T12:21:05.979Z,99815.88
2019-01-03T12:23:36.965Z,99808.58
2019-01-03T12:26:07.935Z,99808.52
2019-01-03T12:28:38.945Z,99806.11
2019-01-03T12:31:09.905Z,99806.32
2019-01-03T12:33:40.915Z,99811.00
2019-01-03T12:37:12.301Z,99808.57
2019-01-03T12:39:35.703Z,99810.84
2019-01-03T12:42:06.661Z,99806.09
2019-01-03T12:44:37.565Z,99799.70
2019-01-03T12:47:08.564Z,99799.30
2019-01-03T12:49:39.487Z,99797.36
2019-01-03T12:52:10.478Z,99800.25
2019-01-03T12:54:41.513Z,99795.26
2019-01-03T12:57:12.467Z,99798.53
2019-01-03T12:59:43.675Z,99795.63
2019-01-03T13:02:14.993Z,99786.72
2019-01-03T13:04:45.883Z,99785.48
2019-01-03T13:07:16.867Z,99786.34
2019-01-03T13:09:47.987Z,99784.44
2019-01-03T13:12:19.086Z,99790.14
2019-01-03T13:14:50.038Z,99793.05
2019-01-03T13:17:20.955Z,99805.66
2019-01-03T13:19:51.971Z,99806.81
2019-01-03T13:22:23.009Z,99795.97
2019-01-03T13:24:53.891Z,99798.27
2019-01-03T13:27:27.116Z,99805.12
2019-01-03T13:29:58.207Z,99806.03
2019-01-03T13:32:29.069Z,99797.86
2019-01-03T13:35:00.010Z,99791.87
2019-01-03T13:37:30.875Z,99808.70
2019-01-03T13:40:01.755Z,99789.23
2019-01-03T13:42:32.697Z,99784.91
2019-01-03T13:45:03.707Z,99785.66
2019-01-03T13:47:34.694Z,99784.89
2019-01-03T13:50:07.690Z,99785.40
2019-01-03T13:52:38.640Z,99775.03
2019-01-03T13:55:09.571Z,99779.16
2019-01-03T13:57:40.733Z,99788.90
2019-01-03T14:00:11.675Z,99787.91
2019-01-03T14:02:42.756Z,99789.42
2019-01-03T14:05:13.728Z,99794.16
2019-01-03T14:07:46.380Z,99792.39
2019-01-03T14:10:17.351Z,99792.91
2019-01-03T14:12:48.393Z,99789.27
2019-01-03T14:15:22.015Z,99795.49
2019-01-03T14:17:53.069Z,99791.09
2019-01-03T14:20:24.087Z,99803.61
2019-01-03T14:22:54.986Z,99809.13
2019-01-03T14:25:26.037Z,99815.03
2019-01-03T14:27:56.918Z,99810.81
2019-01-03T14:30:27.910Z,99814.43
2019-01-03T14:32:58.850Z,99823.42
2019-01-03T14:35:29.824Z,99823.12
2019-01-03T14:38:00.836Z,99825.47
2019-01-03T14:40:31.878Z,99826.13
2019-01-03T14:43:02.853Z,99831.02
2019-01-03T14:45:33.899Z,99826.20
2019-01-03T14:48:04.942Z,99835.31
2019-01-03T14:50:36.018Z,99831.40
2019-01-03T14:53:07.216Z,99830.50
2019-01-03T14:55:38.192Z,99824.63
2019-01-03T14:58:09.274Z,99818.66
2019-01-03T15:00:40.288Z,99824.64
2019-01-03T15:03:11.323Z,99815.42
2019-01-03T15:05:42.338Z,99824.47
2019-01-03T15:08:13.222Z,99826.77
2019-01-03T15:10:44.082Z,99824.41
2019-01-03T15:13:15.006Z,99825.37
2019-01-03T15:15:46.014Z,99823.42
2019-01-03T15:18:17.092Z,99822.39
2019-01-03T15:20:48.250Z,99815.98
2019-01-03T15:23:19.109Z,99810.70
2019-01-03T15:25:50.171Z,99813.52
2019-01-03T15:28:21.109Z,99811.20
2019-01-03T15:30:52.017Z,99813.53
2019-01-03T15:33:23.165Z,99825.06
2019-01-03T15:35:54.109Z,99821.51
2019-01-03T15:38:25.015Z,99830.77
2019-01-03T15:40:56.013Z,99837.30
2019-01-03T15:43:26.968Z,99845.64
2019-01-03T15:45:58.021Z,99841.56
2019-01-03T15:48:29.138Z,99838.08
2019-01-03T15:51:00.231Z,99835.81
2019-01-03T15:53:31.123Z,99828.84
2019-01-03T15:56:02.238Z,99829.25
2019-01-03T15:58:34.501Z,99834.66
2019-01-03T16:01:06.949Z,99834.61
2019-01-03T16:03:37.913Z,99833.79
2019-01-03T16:06:08.942Z,99835.07
2019-01-03T16:08:39.889Z,99835.36
2019-01-03T16:11:10.805Z,99837.35
2019-01-03T16:13:42.108Z,99834.27
2019-01-03T16:16:13.084Z,99840.14
2019-01-03T16:18:43.961Z,99844.69
2019-01-03T16:21:14.898Z,99850.73
2019-01-03T16:23:45.781Z,99850.67
2019-01-03T16:26:16.776Z,99853.06
2019-01-03T16:28:47.840Z,99852.24
2019-01-03T16:31:19.218Z,99855.23
2019-01-03T16:33:50.487Z,99849.98
2019-01-03T16:36:21.388Z,99853.58
2019-01-03T16:38:53.756Z,99854.57
2019-01-03T16:41:24.811Z,99852.83
2019-01-03T16:43:55.943Z,99838.98
2019-01-03T16:46:27.050Z,99841.22
2019-01-03T16:48:58.263Z,99837.67
2019-01-03T16:51:29.765Z,99826.39
2019-01-03T16:54:00.815Z,99833.91
2019-01-03T16:56:31.939Z,99832.92
2019-01-03T16:59:02.960Z,99839.27
2019-01-03T17:01:33.943Z,99833.69
2019-01-03T17:04:04.906Z,99835.13
2019-01-03T17:06:35.900Z,99835.59
2019-01-03T17:09:07.035Z,99840.31
2019-01-03T17:11:38.155Z,99839.08
2019-01-03T17:14:09.206Z,99840.54
2019-01-03T17:16:40.623Z,99836.44
2019-01-03T17:19:11.720Z,99841.27
2019-01-03T17:21:42.745Z,99834.82
2019-01-03T17:24:13.879Z,99840.75
2019-01-03T17:26:45.031Z,99846.33
2019-01-03T17:29:16.083Z,99838.19
2019-01-03T17:31:47.359Z,99846.75
2019-01-03T17:34:18.246Z,99849.30
2019-01-03T17:36:49.703Z,99850.11
2019-01-03T17:39:20.695Z,99854.77
2019-01-03T17:41:51.721Z,99850.06
2019-01-03T17:44:23.211Z,99854.72
2019-01-03T17:46:54.446Z,99861.23
2019-01-03T17:49:25.407Z,99860.81
2019-01-03T17:51:59.324Z,99863.79
2019-01-03T17:54:30.350Z,99856.92
2019-01-03T17:57:01.454Z,99861.53
2019-01-03T17:59:32.512Z,99863.22
2019-01-03T18:02:03.934Z,99863.69
2019-01-03T18:04:34.996Z,99865.95
2019-01-03T18:07:06.154Z,99864.27
2019-01-03T18:09:37.180Z,99856.11
2019-01-03T18:12:08.161Z,99850.94
2019-01-03T18:14:39.203Z,99858.56
2019-01-03T18:17:10.349Z,99870.39
2019-01-03T18:19:41.495Z,99885.33
2019-01-03T18:22:12.441Z,99881.89
2019-01-03T18:24:43.534Z,99883.12
2019-01-03T18:27:14.643Z,99886.91
2019-01-03T18:29:45.658Z,99888.59
2019-01-03T18:32:16.647Z,99883.02
2019-01-03T18:34:47.584Z,99886.86
2019-01-03T18:37:18.678Z,99888.94
2019-01-03T18:39:50.067Z,99888.42
2019-01-03T18:42:21.117Z,99887.39
2019-01-03T18:44:54.051Z,99887.83
2019-01-03T18:47:25.133Z,99888.64
2019-01-03T18:49:56.110Z,99881.45
2019-01-03T18:52:33.884Z,99892.09
2019-01-03T18:55:06.344Z,99887.84
2019-01-03T18:57:38.086Z,99879.35
2019-01-03T19:00:11.895Z,99881.97
2019-01-03T19:02:42.794Z,99876.90
2019-01-03T19:05:13.883Z,99877.72
2019-01-03T19:07:44.883Z,99871.67
2019-01-03T19:10:16.025Z,99868.63
2019-01-03T19:12:47.010Z,99863.87
2019-01-03T19:15:17.925Z,99868.98
2019-01-03T19:17:49.388Z,99871.49
2019-01-03T19:20:20.743Z,99869.86
2019-01-03T19:22:51.882Z,99859.21
2019-01-03T19:25:23.285Z,99854.96
2019-01-03T19:27:54.250Z,99861.36
2019-01-03T19:30:25.294Z,99859.56
2019-01-03T19:32:56.542Z,99861.72
2019-01-03T19:35:27.895Z,99850.09
2019-01-03T19:37:59.015Z,99854.34
2019-01-03T19:40:29.917Z,99850.89
2019-01-03T19:43:00.891Z,99846.61
2019-01-03T19:45:31.810Z,99848.33
2019-01-03T19:48:02.891Z,99844.44
2019-01-03T19:50:34.108Z,99846.13
2019-01-03T19:53:05.275Z,99841.37
2019-01-03T19:55:36.230Z,99836.60
2019-01-03T19:58:07.395Z,99822.06
2019-01-03T20:00:40.079Z,99827.19
2019-01-03T20:03:11.162Z,99825.48
2019-01-03T20:05:42.222Z,99836.88
2019-01-03T20:08:13.197Z,99855.61
2019-01-03T20:10:44.313Z,99847.06
2019-01-03T20:13:15.278Z,99848.45
2019-01-03T20:15:46.240Z,99854.57
2019-01-03T20:18:17.435Z,99852.98
2019-01-03T20:20:52.948Z,99855.14
2019-01-03T20:23:21.250Z,99859.05
2019-01-03T20:25:52.138Z,99863.30
2019-01-03T20:28:23.207Z,99851.48
2019-01-03T20:30:54.499Z,99856.14
2019-01-03T20:33:25.559Z,99854.03
2019-01-03T20:35:56.550Z,99850.20
2019-01-03T20:38:27.737Z,99849.80
2019-01-03T20:40:58.691Z,99833.97
2019-01-03T20:43:30.707Z,99828.34
2019-01-03T20:46:01.672Z,99829.56
2019-01-03T20:48:32.720Z,99831.72
2019-01-03T20:51:03.746Z,99834.25
2019-01-03T20:53:34.972Z,99834.69
2019-01-03T20:56:06.145Z,99834.33
2019-01-03T20:58:37.457Z,99833.56
2019-01-03T21:01:08.892Z,99827.22
2019-01-03T21:03:40.023Z,99834.97
2019-01-03T21:06:10.957Z,99823.55
2019-01-03T21:08:41.990Z,99827.45
2019-01-03T21:11:12.927Z,99820.58
2019-01-03T21:13:43.995Z,99834.61
2019-01-03T21:16:15.039Z,99838.80
2019-01-03T21:18:46.403Z,99837.12
2019-01-03T21:21:17.718Z,99843.11
2019-01-03T21:23:48.806Z,99851.99
2019-01-03T21:26:20.373Z,99855.39
2019-01-03T21:28:51.510Z,99857.13
2019-01-03T21:31:22.639Z,99854.63
2019-01-03T21:33:53.630Z,99864.16
2019-01-03T21:36:24.655Z,99860.38
2019-01-03T21:38:55.769Z,99866.42
2019-01-03T21:41:26.853Z,99866.48
2019-01-03T21:43:57.832Z,99871.31
2019-01-03T21:46:28.790Z,99865.48
2019-01-03T21:48:59.891Z,99873.23
2019-01-03T21:51:30.969Z,99870.26
2019-01-03T21:54:01.927Z,99887.83
2019-01-03T21:56:32.876Z,99883.17
2019-01-03T21:59:03.914Z,99878.87
2019-01-03T22:01:34.909Z,99886.59
2019-01-03T22:04:05.780Z,99892.13
2019-01-03T22:06:36.756Z,99886.09
2019-01-03T22:09:07.720Z,99883.48
2019-01-03T22:11:38.791Z,99886.50
2019-01-03T22:14:09.738Z,99895.45
2019-01-03T22:16:40.734Z,99893.72
2019-01-03T22:19:11.714Z,99895.81
2019-01-03T22:21:42.654Z,99891.55
2019-01-03T22:24:13.783Z,99889.05
2019-01-03T22:26:44.737Z,99886.09
2019-01-03T22:29:15.792Z,99892.90
2019-01-03T22:31:46.894Z,99893.36
2019-01-03T22:34:17.949Z,99891.14
2019-01-03T22:36:48.909Z,99889.39
2019-01-03T22:39:19.869Z,99889.29
2019-01-03T22:41:50.941Z,99887.03
2019-01-03T22:44:21.961Z,99877.19
2019-01-03T22:46:53.020Z,99878.41
2019-01-03T22:49:24.073Z,99880.09
2019-01-03T22:51:55.028Z,99881.33
2019-01-03T22:54:26.009Z,99887.31
2019-01-03T22:56:57.067Z,99885.50
2019-01-03T22:59:28.200Z,99885.80
2019-01-03T23:01:59.306Z,99888.64
2019-01-03T23:04:30.348Z,99885.21
2019-01-03T23:07:01.393Z,99886.95
2019-01-03T23:09:32.289Z,99880.55
2019-01-03T23:12:03.367Z,99876.72
2019-01-03T23:14:34.398Z,99887.26
2019-01-03T23:17:05.506Z,99888.00
2019-01-03T23:19:36.492Z,99884.41
2019-01-03T23:22:07.447Z,99881.33
2019-01-03T23:24:38.589Z,99886.83
2019-01-03T23:27:09.482Z,99887.73
2019-01-03T23:29:40.503Z,99889.52
2019-01-03T23:32:11.419Z,99889.52
2019-01-03T23:34:57.694Z,99898.48
2019-01-03T23:37:25.409Z,99905.39
2019-01-03T23:39:56.407Z,99914.35
2019-01-03T23:42:27.327Z,99917.37
2019-01-03T23:45:19.054Z,99919.06
2019-01-03T23:47:51.342Z,99918.19
2019-01-03T23:50:25.364Z,99916.05
2019-01-03T23:52:56.392Z,99918.55
2019-01-03T23:55:28.555Z,99912.91
2019-01-03T23:57:59.519Z,99910.73
